createdAt,value
2018-06-04T00:01:14.631Z,17.92
2018-06-04T00:03:46.309Z,17.99
2018-06-04T00:06:19.380Z,17.94
2018-06-04T00:08:52.600Z,17.88
2018-06-04T00:11:23.792Z,17.87
2018-06-04T00:13:55.697Z,17.85
2018-06-04T00:16:29.182Z,17.89
2018-06-04T00:19:03.828Z,17.84
2018-06-04T00:21:36.805Z,17.83
2018-06-04T00:24:06.806Z,17.83
2018-06-04T00:26:40.023Z,17.79
2018-06-04T00:29:11.713Z,17.75
2018-06-04T00:31:43.298Z,17.77
2018-06-04T00:34:15.004Z,17.68
2018-06-04T00:36:46.462Z,17.62
2018-06-04T00:39:19.427Z,17.70
2018-06-04T00:41:51.053Z,17.77
2018-06-04T00:44:25.527Z,17.67
2018-06-04T00:46:59.715Z,17.63
2018-06-04T00:49:32.102Z,17.68
2018-06-04T00:52:02.414Z,17.64
2018-06-04T00:54:37.036Z,17.62
2018-06-04T00:57:09.352Z,17.65
2018-06-04T00:59:42.910Z,17.66
2018-06-04T01:02:14.302Z,17.79
2018-06-04T01:04:45.895Z,17.88
2018-06-04T01:07:19.121Z,17.84
2018-06-04T01:09:50.906Z,17.95
2018-06-04T01:12:24.974Z,17.98
2018-06-04T01:14:58.173Z,18.02
2018-06-04T01:17:31.889Z,18.09
2018-06-04T01:20:04.851Z,18.13
2018-06-04T01:22:36.961Z,18.18
2018-06-04T01:25:10.107Z,18.11
2018-06-04T01:27:43.483Z,18.10
2018-06-04T01:30:19.293Z,18.18
2018-06-04T01:32:52.225Z,18.12
2018-06-04T01:35:25.032Z,18.13
2018-06-04T01:37:56.618Z,18.07
2018-06-04T01:40:28.348Z,18.09
2018-06-04T01:43:01.684Z,18.12
2018-06-04T01:45:33.506Z,18.08
2018-06-04T01:48:04.029Z,18.05
2018-06-04T01:50:36.180Z,18.12
2018-06-04T01:53:07.881Z,18.10
2018-06-04T01:55:39.572Z,18.11
2018-06-04T01:58:12.837Z,18.11
2018-06-04T02:00:42.998Z,18.18
2018-06-04T02:03:16.219Z,18.17
2018-06-04T02:05:48.015Z,18.09
2018-06-04T02:08:19.784Z,18.07
2018-06-04T02:10:49.801Z,18.08
2018-06-04T02:13:23.026Z,18.05
2018-06-04T02:15:54.606Z,18.11
2018-06-04T02:18:27.805Z,18.02
2018-06-04T02:21:02.493Z,18.04
2018-06-04T02:23:34.137Z,18.09
2018-06-04T02:26:08.772Z,18.05
2018-06-04T02:28:40.228Z,18.03
2018-06-04T02:31:13.500Z,18.06
2018-06-04T02:33:45.065Z,18.03
2018-06-04T02:36:16.712Z,18.08
2018-06-04T02:38:50.131Z,18.09
2018-06-04T02:41:24.376Z,18.08
2018-06-04T02:43:54.388Z,18.12
2018-06-04T02:46:28.814Z,18.13
2018-06-04T02:49:00.420Z,18.22
2018-06-04T02:51:32.474Z,18.17
2018-06-04T02:54:03.324Z,18.21
2018-06-04T02:56:36.432Z,18.21
2018-06-04T02:59:07.212Z,18.15
2018-06-04T03:01:37.876Z,18.22
2018-06-04T03:04:08.189Z,18.20
2018-06-04T03:06:39.573Z,18.18
2018-06-04T03:09:12.002Z,18.21
2018-06-04T03:11:46.861Z,18.19
2018-06-04T03:14:21.207Z,18.19
2018-06-04T03:16:54.740Z,18.25
2018-06-04T03:19:29.251Z,18.20
2018-06-04T03:22:02.591Z,18.28
2018-06-04T03:24:34.564Z,18.27
2018-06-04T03:27:08.249Z,18.25
2018-06-04T03:29:41.402Z,18.24
2018-06-04T03:32:14.571Z,18.34
2018-06-04T03:34:47.244Z,18.43
2018-06-04T03:37:20.422Z,18.44
2018-06-04T03:39:52.179Z,18.37
2018-06-04T03:42:27.098Z,18.34
2018-06-04T03:45:01.636Z,18.38
2018-06-04T03:47:35.125Z,18.39
2018-06-04T03:50:06.898Z,18.43
2018-06-04T03:52:38.720Z,18.50
2018-06-04T03:55:11.729Z,18.46
2018-06-04T03:57:44.929Z,18.51
2018-06-04T04:00:17.943Z,18.46
2018-06-04T04:02:49.610Z,18.43
2018-06-04T04:05:22.765Z,18.37
2018-06-04T04:07:54.510Z,18.40
2018-06-04T04:10:26.132Z,18.38
2018-06-04T04:12:57.791Z,18.41
2018-06-04T04:15:29.325Z,18.45
2018-06-04T04:17:59.683Z,18.41
2018-06-04T04:20:30.482Z,18.46
2018-06-04T04:23:02.512Z,18.51
2018-06-04T04:25:35.507Z,18.43
2018-06-04T04:28:07.147Z,18.49
2018-06-04T04:30:40.260Z,18.65
2018-06-04T04:33:12.291Z,18.61
2018-06-04T04:35:47.008Z,18.58
2018-06-04T04:38:20.801Z,18.53
2018-06-04T04:40:52.690Z,18.57
2018-06-04T04:43:27.115Z,18.54
2018-06-04T04:46:01.724Z,18.53
2018-06-04T04:48:35.384Z,18.54
2018-06-04T04:51:09.874Z,18.61
2018-06-04T04:53:41.642Z,18.64
2018-06-04T04:56:13.871Z,18.67
2018-06-04T04:58:47.294Z,18.68
2018-06-04T05:01:19.032Z,18.61
2018-06-04T05:03:50.615Z,18.70
2018-06-04T05:06:23.974Z,18.80
2018-06-04T05:08:58.569Z,18.82
2018-06-04T05:11:32.108Z,18.93
2018-06-04T05:14:03.531Z,18.83
2018-06-04T05:16:36.531Z,18.80
2018-06-04T05:19:08.562Z,18.88
2018-06-04T05:21:41.619Z,18.93
2018-06-04T05:24:13.322Z,18.86
2018-06-04T05:26:44.820Z,18.93
2018-06-04T05:29:16.795Z,19.05
2018-06-04T05:31:50.030Z,19.00
2018-06-04T05:34:24.763Z,18.98
2018-06-04T05:36:56.355Z,19.15
2018-06-04T05:39:29.684Z,19.33
2018-06-04T05:42:02.726Z,19.36
2018-06-04T05:44:32.746Z,19.34
2018-06-04T05:47:04.430Z,19.22
2018-06-04T05:49:36.312Z,19.17
2018-06-04T05:52:09.436Z,19.15
2018-06-04T05:54:41.096Z,19.14
2018-06-04T05:57:14.953Z,19.33
2018-06-04T05:59:44.835Z,19.24
2018-06-04T06:02:17.316Z,19.15
2018-06-04T06:04:49.166Z,19.03
2018-06-04T06:07:24.109Z,19.14
2018-06-04T06:09:56.018Z,19.21
2018-06-04T06:12:29.468Z,19.24
2018-06-04T06:15:03.069Z,19.36
2018-06-04T06:17:37.847Z,19.39
2018-06-04T06:20:11.572Z,19.51
2018-06-04T06:22:44.802Z,19.60
2018-06-04T06:25:19.661Z,19.48
2018-06-04T06:27:52.729Z,19.61
2018-06-04T06:30:26.216Z,19.50
2018-06-04T06:32:56.924Z,19.67
2018-06-04T06:35:29.228Z,19.68
2018-06-04T06:38:00.906Z,19.81
2018-06-04T06:40:35.741Z,20.06
2018-06-04T06:43:08.802Z,20.25
2018-06-04T06:45:41.854Z,20.28
2018-06-04T06:48:15.635Z,20.21
2018-06-04T06:50:50.129Z,20.19
2018-06-04T06:53:21.845Z,20.18
2018-06-04T06:55:53.494Z,20.10
2018-06-04T06:58:26.523Z,20.23
2018-06-04T07:00:58.483Z,20.40
2018-06-04T07:03:33.251Z,20.41
2018-06-04T07:06:06.131Z,20.38
2018-06-04T07:08:39.541Z,20.30
2018-06-04T07:11:12.871Z,20.14
2018-06-04T07:13:42.888Z,20.42
2018-06-04T07:16:16.445Z,20.57
2018-06-04T07:18:49.422Z,20.42
2018-06-04T07:21:19.427Z,20.64
2018-06-04T07:23:50.919Z,20.56
2018-06-04T07:26:23.889Z,20.77
2018-06-04T07:28:56.916Z,20.89
2018-06-04T07:31:28.568Z,20.95
2018-06-04T07:34:01.826Z,20.74
2018-06-04T07:36:34.996Z,20.88
2018-06-04T07:39:11.081Z,21.14
2018-06-04T07:41:44.275Z,21.07
2018-06-04T07:44:19.045Z,20.98
2018-06-04T07:46:50.692Z,21.09
2018-06-04T07:49:22.288Z,21.30
2018-06-04T07:51:54.918Z,21.39
2018-06-04T07:54:28.101Z,21.70
2018-06-04T07:57:00.078Z,21.73
2018-06-04T07:59:32.948Z,21.71
2018-06-04T08:02:05.670Z,21.43
2018-06-04T08:04:38.614Z,21.45
2018-06-04T08:07:11.788Z,21.40
2018-06-04T08:09:43.448Z,21.37
2018-06-04T08:12:13.300Z,21.14
2018-06-04T08:14:46.143Z,20.89
2018-06-04T08:17:17.762Z,20.75
2018-06-04T08:19:52.280Z,20.81
2018-06-04T08:22:23.890Z,20.75
2018-06-04T08:24:54.476Z,20.73
2018-06-04T08:27:25.884Z,20.84
2018-06-04T08:29:57.509Z,20.63
2018-06-04T08:32:30.550Z,20.66
2018-06-04T08:35:03.930Z,20.65
2018-06-04T08:37:35.407Z,20.86
2018-06-04T08:40:09.091Z,20.80
2018-06-04T08:42:40.753Z,20.96
2018-06-04T08:45:15.414Z,21.03
2018-06-04T08:47:49.969Z,21.13
2018-06-04T08:50:20.063Z,21.12
2018-06-04T08:52:52.437Z,21.38
2018-06-04T08:55:24.397Z,21.10
2018-06-04T08:57:56.493Z,21.24
2018-06-04T09:00:28.405Z,21.29
2018-06-04T09:03:03.180Z,21.41
2018-06-04T09:05:35.558Z,21.26
2018-06-04T09:08:07.084Z,21.16
2018-06-04T09:10:42.039Z,21.43
2018-06-04T09:13:13.925Z,21.44
2018-06-04T09:15:46.039Z,21.51
2018-06-04T09:18:19.287Z,21.48
2018-06-04T09:20:49.251Z,21.70
2018-06-04T09:23:23.061Z,21.55
2018-06-04T09:25:56.703Z,22.12
2018-06-04T09:28:29.014Z,22.12
2018-06-04T09:31:00.504Z,22.02
2018-06-04T09:33:32.612Z,21.79
2018-06-04T09:36:02.577Z,22.05
2018-06-04T09:38:34.224Z,21.95
2018-06-04T09:41:07.165Z,21.62
2018-06-04T09:43:40.228Z,21.79
2018-06-04T09:46:10.209Z,21.96
2018-06-04T09:48:42.103Z,22.07
2018-06-04T09:51:13.612Z,22.04
2018-06-04T09:53:45.505Z,21.74
2018-06-04T09:56:16.141Z,21.70
2018-06-04T09:58:47.910Z,21.90
2018-06-04T10:01:22.477Z,21.67
2018-06-04T10:03:54.053Z,21.79
2018-06-04T10:06:27.063Z,21.63
2018-06-04T10:08:56.966Z,21.88
2018-06-04T10:11:28.396Z,22.00
2018-06-04T10:14:00.052Z,21.89
2018-06-04T10:16:31.610Z,21.75
2018-06-04T10:19:04.908Z,21.70
2018-06-04T10:21:38.052Z,21.95
2018-06-04T10:24:10.074Z,21.95
2018-06-04T10:26:43.380Z,21.80
2018-06-04T10:29:16.669Z,22.28
2018-06-04T10:31:49.624Z,21.94
2018-06-04T10:34:23.643Z,22.26
2018-06-04T10:36:56.471Z,22.22
2018-06-04T10:39:29.650Z,22.38
2018-06-04T10:42:02.817Z,22.54
2018-06-04T10:44:37.149Z,22.39
2018-06-04T10:47:10.074Z,22.29
2018-06-04T10:49:41.778Z,21.77
2018-06-04T10:52:12.602Z,21.59
2018-06-04T10:54:44.657Z,21.72
2018-06-04T10:57:19.493Z,21.74
2018-06-04T10:59:53.940Z,21.75
2018-06-04T11:02:27.868Z,21.75
2018-06-04T11:05:03.249Z,21.81
2018-06-04T11:07:37.881Z,22.25
2018-06-04T11:10:09.579Z,22.21
2018-06-04T11:12:43.935Z,22.66
2018-06-04T11:15:16.699Z,23.02
2018-06-04T11:17:50.443Z,22.68
2018-06-04T11:20:20.523Z,23.07
2018-06-04T11:22:53.306Z,22.99
2018-06-04T11:25:26.848Z,22.98
2018-06-04T11:27:58.738Z,22.77
2018-06-04T11:30:31.878Z,22.78
2018-06-04T11:33:06.384Z,22.93
2018-06-04T11:35:36.347Z,23.25
2018-06-04T11:38:09.274Z,23.18
2018-06-04T11:40:42.495Z,23.45
2018-06-04T11:43:15.411Z,24.25
2018-06-04T11:45:47.358Z,24.82
2018-06-04T11:48:17.373Z,24.82
2018-06-04T11:50:49.249Z,24.66
2018-06-04T11:53:22.308Z,25.39
2018-06-04T11:55:54.903Z,25.15
2018-06-04T11:58:26.559Z,24.16
2018-06-04T12:00:57.949Z,24.09
2018-06-04T12:03:32.327Z,24.92
2018-06-04T12:06:02.238Z,24.96
2018-06-04T12:08:33.712Z,25.05
2018-06-04T12:11:05.246Z,25.40
2018-06-04T12:13:39.617Z,24.90
2018-06-04T12:16:11.371Z,24.55
2018-06-04T12:18:42.783Z,24.55
2018-06-04T12:21:15.288Z,24.22
2018-06-04T12:23:48.716Z,23.90
2018-06-04T12:26:23.179Z,24.86
2018-06-04T12:28:57.571Z,24.86
2018-06-04T12:31:29.514Z,25.13
2018-06-04T12:34:03.772Z,25.79
2018-06-04T12:36:37.979Z,25.76
2018-06-04T12:39:11.915Z,25.93
2018-06-04T12:41:46.412Z,24.83
2018-06-04T12:44:19.328Z,24.96
2018-06-04T12:46:52.090Z,24.36
2018-06-04T12:49:23.555Z,24.57
2018-06-04T12:51:57.929Z,24.60
2018-06-04T12:54:29.643Z,24.97
2018-06-04T12:57:02.559Z,25.50
2018-06-04T12:59:33.960Z,26.00
2018-06-04T13:02:05.046Z,25.37
2018-06-04T13:04:37.937Z,26.17
2018-06-04T13:07:11.140Z,25.38
2018-06-04T13:09:44.011Z,25.66
2018-06-04T13:12:17.035Z,25.45
2018-06-04T13:14:48.497Z,25.77
2018-06-04T13:17:21.035Z,25.74
2018-06-04T13:19:50.946Z,25.61
2018-06-04T13:22:22.496Z,25.26
2018-06-04T13:24:53.989Z,25.29
2018-06-04T13:27:25.427Z,25.05
2018-06-04T13:29:58.358Z,24.99
2018-06-04T13:32:33.019Z,24.85
2018-06-04T13:35:05.841Z,25.17
2018-06-04T13:37:38.073Z,25.38
2018-06-04T13:40:10.836Z,25.08
2018-06-04T13:42:43.753Z,24.79
2018-06-04T13:45:18.068Z,24.90
2018-06-04T13:47:47.909Z,25.43
2018-06-04T13:50:19.790Z,25.30
2018-06-04T13:52:52.552Z,25.59
2018-06-04T13:55:23.904Z,25.53
2018-06-04T13:57:57.094Z,25.74
2018-06-04T14:00:27.008Z,25.08
2018-06-04T14:02:56.894Z,24.82
2018-06-04T14:05:30.188Z,24.57
2018-06-04T14:08:00.012Z,24.42
2018-06-04T14:10:29.908Z,24.78
2018-06-04T14:13:00.726Z,24.85
2018-06-04T14:15:33.754Z,24.79
2018-06-04T14:18:06.632Z,24.82
2018-06-04T14:20:36.539Z,24.59
2018-06-04T14:23:07.892Z,24.44
2018-06-04T14:25:42.344Z,24.23
2018-06-04T14:28:12.874Z,24.56
2018-06-04T14:30:43.259Z,24.59
2018-06-04T14:33:16.495Z,24.66
2018-06-04T14:35:49.455Z,24.37
2018-06-04T14:38:20.887Z,24.50
2018-06-04T14:40:50.808Z,24.77
2018-06-04T14:43:22.093Z,24.52
2018-06-04T14:45:55.441Z,24.07
2018-06-04T14:48:29.822Z,23.91
2018-06-04T14:51:01.214Z,24.11
2018-06-04T14:53:33.258Z,24.26
2018-06-04T14:56:03.303Z,24.10
2018-06-04T14:58:36.474Z,23.85
2018-06-04T15:01:08.870Z,24.03
2018-06-04T15:03:39.502Z,24.05
2018-06-04T15:06:12.326Z,24.17
2018-06-04T15:08:45.302Z,24.25
2018-06-04T15:11:19.604Z,24.12
2018-06-04T15:13:51.537Z,24.37
2018-06-04T15:16:24.406Z,24.25
2018-06-04T15:18:57.430Z,24.18
2018-06-04T15:21:28.935Z,24.07
2018-06-04T15:24:02.182Z,23.68
2018-06-04T15:26:33.501Z,23.67
2018-06-04T15:29:06.503Z,23.71
2018-06-04T15:31:37.872Z,23.81
2018-06-04T15:34:11.818Z,23.81
2018-06-04T15:36:42.289Z,23.62
2018-06-04T15:39:15.296Z,23.72
2018-06-04T15:41:48.552Z,23.81
2018-06-04T15:44:20.506Z,23.72
2018-06-04T15:46:50.397Z,23.79
2018-06-04T15:49:23.187Z,23.70
2018-06-04T15:51:55.195Z,23.70
2018-06-04T15:54:28.187Z,23.68
2018-06-04T15:57:01.176Z,23.67
2018-06-04T15:59:34.151Z,23.60
2018-06-04T16:02:09.511Z,23.50
2018-06-04T16:04:43.814Z,23.45
2018-06-04T16:07:15.472Z,23.31
2018-06-04T16:09:46.930Z,23.23
2018-06-04T16:12:21.739Z,23.19
2018-06-04T16:14:53.734Z,22.96
2018-06-04T16:17:26.321Z,22.98
2018-06-04T16:19:58.344Z,23.07
2018-06-04T16:22:29.222Z,22.78
2018-06-04T16:25:00.785Z,22.53
2018-06-04T16:27:31.162Z,22.57
2018-06-04T16:30:04.067Z,22.45
2018-06-04T16:32:33.194Z,22.44
2018-06-04T16:35:06.684Z,22.39
2018-06-04T16:37:38.609Z,22.40
2018-06-04T16:40:11.523Z,22.22
2018-06-04T16:42:44.423Z,22.42
2018-06-04T16:45:16.132Z,22.35
2018-06-04T16:47:47.579Z,22.15
2018-06-04T16:50:20.532Z,22.17
2018-06-04T16:52:50.613Z,22.01
2018-06-04T16:55:23.423Z,22.07
2018-06-04T16:57:54.774Z,21.93
2018-06-04T17:00:27.813Z,21.96
2018-06-04T17:03:00.653Z,21.93
2018-06-04T17:05:32.377Z,21.86
2018-06-04T17:08:03.736Z,21.59
2018-06-04T17:10:35.305Z,21.34
2018-06-04T17:13:06.377Z,21.49
2018-06-04T17:15:39.252Z,21.55
2018-06-04T17:18:11.628Z,21.45
2018-06-04T17:20:44.543Z,21.39
2018-06-04T17:23:16.085Z,21.12
2018-06-04T17:25:48.247Z,21.24
2018-06-04T17:28:22.284Z,20.99
2018-06-04T17:30:55.209Z,20.96
2018-06-04T17:33:26.744Z,20.80
2018-06-04T17:35:58.152Z,20.68
2018-06-04T17:38:31.405Z,20.40
2018-06-04T17:41:02.737Z,20.50
2018-06-04T17:43:34.047Z,20.51
2018-06-04T17:46:07.158Z,20.29
2018-06-04T17:48:37.045Z,20.34
2018-06-04T17:51:10.083Z,20.17
2018-06-04T17:53:42.436Z,20.20
2018-06-04T17:56:12.431Z,20.03
2018-06-04T17:58:46.746Z,19.98
2018-06-04T18:01:19.719Z,19.82
2018-06-04T18:03:49.310Z,19.75
2018-06-04T18:06:21.634Z,19.79
2018-06-04T18:08:54.632Z,19.70
2018-06-04T18:11:26.855Z,19.72
2018-06-04T18:13:58.424Z,19.79
2018-06-04T18:16:30.070Z,19.62
2018-06-04T18:19:01.813Z,19.60
2018-06-04T18:21:32.414Z,19.44
2018-06-04T18:24:03.902Z,19.53
2018-06-04T18:26:36.962Z,19.41
2018-06-04T18:29:11.403Z,19.38
2018-06-04T18:31:42.973Z,19.25
2018-06-04T18:34:14.971Z,19.21
2018-06-04T18:36:48.191Z,19.30
2018-06-04T18:39:20.268Z,19.20
2018-06-04T18:41:51.718Z,19.08
2018-06-04T18:44:23.405Z,19.09
2018-06-04T18:46:55.045Z,19.07
2018-06-04T18:49:28.351Z,19.07
2018-06-04T18:52:00.110Z,19.03
2018-06-04T18:54:34.932Z,18.95
2018-06-04T18:57:08.701Z,18.99
2018-06-04T18:59:40.940Z,18.87
2018-06-04T19:02:14.019Z,18.77
2018-06-04T19:04:46.148Z,18.74
2018-06-04T19:07:20.986Z,18.68
2018-06-04T19:09:52.818Z,18.65
2018-06-04T19:12:23.090Z,18.58
2018-06-04T19:14:56.204Z,18.51
2018-06-04T19:17:27.118Z,18.50
2018-06-04T19:19:58.637Z,18.46
2018-06-04T19:22:28.683Z,18.46
2018-06-04T19:25:03.509Z,18.38
2018-06-04T19:27:36.597Z,18.41
2018-06-04T19:30:10.890Z,18.32
2018-06-04T19:32:42.300Z,18.39
2018-06-04T19:35:12.359Z,18.37
2018-06-04T19:37:45.588Z,18.38
2018-06-04T19:40:17.518Z,18.46
2018-06-04T19:42:50.538Z,18.41
2018-06-04T19:45:23.492Z,18.33
2018-06-04T19:47:53.416Z,18.39
2018-06-04T19:50:26.331Z,18.42
2018-06-04T19:52:57.943Z,18.34
2018-06-04T19:55:29.861Z,18.38
2018-06-04T19:58:01.593Z,18.39
2018-06-04T20:00:36.501Z,18.38
2018-06-04T20:03:07.951Z,18.47
2018-06-04T20:05:41.091Z,18.41
2018-06-04T20:08:11.173Z,18.49
2018-06-04T20:10:45.457Z,18.45
2018-06-04T20:13:19.899Z,18.30
2018-06-04T20:15:54.477Z,18.43
2018-06-04T20:18:26.506Z,18.34
2018-06-04T20:21:01.417Z,18.31
2018-06-04T20:23:32.901Z,18.38
2018-06-04T20:26:05.910Z,18.28
2018-06-04T20:28:38.887Z,18.18
2018-06-04T20:31:13.602Z,18.19
2018-06-04T20:33:46.865Z,18.19
2018-06-04T20:36:18.437Z,18.12
2018-06-04T20:38:51.679Z,18.09
2018-06-04T20:41:24.904Z,17.97
2018-06-04T20:43:59.828Z,18.00
2018-06-04T20:46:34.267Z,17.91
2018-06-04T20:49:06.018Z,17.78
2018-06-04T20:51:36.018Z,17.65
2018-06-04T20:54:07.555Z,17.60
2018-06-04T20:56:39.364Z,17.65
2018-06-04T20:59:11.038Z,17.65
2018-06-04T21:01:44.299Z,17.65
2018-06-04T21:04:16.039Z,17.67
2018-06-04T21:06:48.981Z,17.70
2018-06-04T21:09:22.246Z,17.72
2018-06-04T21:11:53.751Z,17.65
2018-06-04T21:14:25.536Z,17.67
2018-06-04T21:16:57.190Z,17.70
2018-06-04T21:19:30.304Z,17.67
2018-06-04T21:22:02.081Z,17.57
2018-06-04T21:24:32.096Z,17.58
2018-06-04T21:27:06.698Z,17.63
2018-06-04T21:29:38.443Z,17.62
2018-06-04T21:32:11.502Z,17.65
2018-06-04T21:34:41.536Z,17.68
2018-06-04T21:37:13.643Z,17.75
2018-06-04T21:39:45.358Z,17.77
2018-06-04T21:42:18.528Z,17.68
2018-06-04T21:44:50.540Z,17.71
2018-06-04T21:47:22.182Z,17.79
2018-06-04T21:49:55.396Z,17.71
2018-06-04T21:52:28.568Z,17.77
2018-06-04T21:55:01.504Z,17.67
2018-06-04T21:57:33.112Z,17.74
2018-06-04T22:00:03.967Z,17.75
2018-06-04T22:02:37.066Z,17.73
2018-06-04T22:05:10.053Z,17.78
2018-06-04T22:07:43.736Z,17.70
2018-06-04T22:10:18.371Z,17.59
2018-06-04T22:12:51.034Z,17.60
2018-06-04T22:15:24.352Z,17.58
2018-06-04T22:17:58.748Z,17.63
2018-06-04T22:20:31.706Z,17.52
2018-06-04T22:23:05.179Z,17.54
2018-06-04T22:25:38.405Z,17.50
2018-06-04T22:28:11.769Z,17.55
2018-06-04T22:30:44.773Z,17.46
2018-06-04T22:33:19.555Z,17.44
2018-06-04T22:35:54.176Z,17.56
2018-06-04T22:38:27.145Z,17.57
2018-06-04T22:41:01.972Z,17.49
2018-06-04T22:43:34.426Z,17.57
2018-06-04T22:46:07.945Z,17.53
2018-06-04T22:48:42.601Z,17.50
2018-06-04T22:51:15.567Z,17.62
2018-06-04T22:53:47.107Z,17.62
2018-06-04T22:56:21.047Z,17.60
2018-06-04T22:58:52.652Z,17.56
2018-06-04T23:01:24.216Z,17.49
2018-06-04T23:03:56.988Z,17.57
2018-06-04T23:06:30.246Z,17.49
2018-06-04T23:09:01.912Z,17.47
2018-06-04T23:11:32.840Z,17.41
2018-06-04T23:14:07.395Z,17.36
2018-06-04T23:16:37.440Z,17.42
2018-06-04T23:19:09.981Z,17.39
2018-06-04T23:21:43.239Z,17.39
2018-06-04T23:24:15.554Z,17.39
2018-06-04T23:26:48.963Z,17.37
2018-06-04T23:29:21.425Z,17.39
2018-06-04T23:31:54.573Z,17.31
2018-06-04T23:34:24.663Z,17.30
2018-06-04T23:36:57.908Z,17.22
2018-06-04T23:39:31.550Z,17.24
2018-06-04T23:42:03.524Z,17.29
2018-06-04T23:44:38.052Z,17.25
2018-06-04T23:47:09.791Z,17.15
2018-06-04T23:49:41.344Z,17.08
2018-06-04T23:52:14.578Z,17.03
2018-06-04T23:54:46.176Z,17.03
2018-06-04T23:57:16.148Z,17.09
2018-06-04T23:59:50.862Z,17.01
